Terminal Aerodrome Forecast
Issued by NWS

Current Version | Previous Version | Graphics & Text | Print | Product List | Glossary On
Versions: 1 2 3 4 5 6 7 8 9 10 11 12 13 14 15 16 17 18 19 20 21 22 23 24
003
FTUS41 KRLX 160300 AAA
TAFCKB
TAF AMD
KCKB 160300Z 1603/1624 22004KT P6SM OVC025
     FM160400 22006KT P6SM -DZ OVC015
     FM160600 23006KT P6SM -DZ OVC006
     FM160800 24007KT P6SM OVC015
     FM161200 25010G17KT P6SM OVC025=

USA.gov is the U.S. government's official web portal to all federal, state and local government web resources and services.